This is the latest recevied weather packets stored in our database for station/object N5TDX. If no packets are shown the sender has not sent any weather packets the latest 10 day(s).
| Time | Temp. | Humidity | Pressure | Rain* | Wind** | Luminosity | Snow |
|---|---|---|---|---|---|---|---|
| 1777500037 | 17.78° C | 69% | 1010.7 hPa | 0 mm | - | - | - |
| 1777499733 | 17.78° C | 69% | 1010.9 hPa | 0 mm | - | - | - |
| 1777499430 | 17.78° C | 69% | 1010.5 hPa | 0 mm | - | - | - |
| 1777499129 | 17.78° C | 71% | 1010.3 hPa | 0 mm | - | - | - |
| 1777498825 | 17.78° C | 70% | 1010.9 hPa | 0 mm | - | - | - |
| 1777498521 | 17.78° C | 70% | 1010.9 hPa | 0 mm | - | - | - |
| 1777498218 | 17.78° C | 70% | 1011.1 hPa | 0 mm | - | - | - |
| 1777497916 | 17.78° C | 70% | 1011.3 hPa | 0 mm | - | - | - |
| 1777497612 | 18.33° C | 69% | 1011 hPa | 0 mm | - | - | - |
| 1777497309 | 18.33° C | 69% | 1010.5 hPa | 0 mm | - | - | - |
| 1777497004 | 18.33° C | 69% | 1010.2 hPa | 0 mm | - | - | - |
| 1777496701 | 18.33° C | 68% | 1010.1 hPa | 0 mm | - | - | - |
| 1777496397 | 18.33° C | 68% | 1010.3 hPa | 0 mm | - | - | - |
| 1777496095 | 18.33° C | 68% | 1010.3 hPa | 0 mm | - | - | - |
| 1777495790 | 18.33° C | 68% | 1010.5 hPa | 0 mm | - | - | - |
| 1777495487 | 18.33° C | 68% | 1010.6 hPa | 0 mm | - | - | - |
| 1777495183 | 18.89° C | 68% | 1010.2 hPa | 0 mm | - | - | - |
| 1777494880 | 18.33° C | 68% | 1010.1 hPa | 0 mm | - | - | - |
| 1777494577 | 18.33° C | 69% | 1009.8 hPa | 0 mm | - | - | - |
| 1777494275 | 19.44° C | 66% | 1010.5 hPa | 0 mm | - | - | - |
| 1777493971 | 18.89° C | 68% | 1010.3 hPa | 0 mm | - | - | - |
| 1777493669 | 18.89° C | 68% | 1010.1 hPa | 0 mm | - | - | - |
| 1777493366 | 18.33° C | 68% | 1010.5 hPa | 0 mm | - | - | - |
| 1777493063 | 18.89° C | 66% | 1010.7 hPa | 0 mm | - | - | - |
| 1777492760 | 19.44° C | 65% | 1011.1 hPa | 0 mm | - | - | - |
* Rain latest hour (hover to see other rain measurements)
** Current wind speed in m/s (hover to see current wind gust speed)